.
WxDataArchive / Data Records for 2012-06-17
2012-06-16 June 2012 2012-06-18

Data Records for Sunday, 17 June 2012

Time	Temp	Chill	HIndex	Humid	Dewpt	 Wind 	HiWind	WindDir	Rain 	Barom 
-----	----	-----	------	-----	-----	------	------	-------	-----	----- 
00:00	78.1	78.1	80.0	65	65.4	0	1	270	0.00	29.908 
00:05	78.1	78.1	80.0	65	65.4	0	0	---	0.00	29.908 
00:10	77.9	77.9	79.7	65	65.2	0	0	---	0.00	29.908 
00:15	77.9	77.9	79.7	65	65.2	0	0	---	0.00	29.912 
00:20	77.7	77.7	79.6	66	65.4	0	1	270	0.00	29.912 
00:25	77.6	77.6	79.4	66	65.3	0	0	---	0.00	29.912 
00:30	77.4	77.4	79.2	67	65.6	0	0	---	0.00	29.911 
00:35	77.2	77.2	79.0	67	65.4	0	0	---	0.00	29.911 
00:40	76.8	76.8	78.6	68	65.4	0	1	270	0.00	29.911 
00:45	76.8	76.8	78.6	69	65.8	0	2	270	0.00	29.910 
00:50	76.8	76.8	78.6	69	65.8	0	2	270	0.00	29.910 
00:55	76.8	76.8	78.6	69	65.8	0	1	270	0.00	29.910 
01:00	77.0	77.0	78.8	68	65.6	0	2	270	0.00	29.916 
01:05	77.0	77.0	78.8	66	64.8	0	2	270	0.00	29.916 
01:10	77.2	77.2	79.0	65	64.5	0	1	270	0.00	29.916 
01:15	77.4	77.4	79.2	64	64.2	0	2	270	0.00	29.913 
01:20	77.4	77.4	79.2	63	63.8	0	2	270	0.00	29.913 
01:25	77.4	77.4	79.2	62	63.3	0	2	270	0.00	29.913 
01:30	77.4	77.4	79.2	62	63.3	0	4	270	0.00	29.905 
01:35	77.4	77.4	79.2	62	63.3	0	3	270	0.00	29.905 
01:40	77.2	77.2	79.0	62	63.2	0	1	270	0.00	29.905 
01:45	77.2	77.2	79.0	62	63.2	0	1	270	0.00	29.906 
01:50	77.0	77.0	78.8	62	63.0	0	1	270	0.00	29.906 
01:55	76.8	76.8	78.6	62	62.8	0	1	270	0.00	29.906 
02:00	76.7	76.7	78.5	62	62.7	0	1	270	0.00	29.909 
02:05	76.5	76.5	78.4	62	62.5	0	1	270	0.00	29.909 
02:10	76.3	76.3	78.2	63	62.8	0	0	---	0.00	29.909 
02:15	76.1	76.1	78.0	63	62.6	0	0	---	0.00	29.911 
02:20	76.0	76.0	77.9	63	62.5	0	0	---	0.00	29.911 
02:25	75.6	75.6	77.6	64	62.5	0	0	---	0.00	29.911 
02:30	75.4	75.4	77.4	64	62.4	0	0	---	0.00	29.903 
02:35	75.3	75.3	77.4	64	62.3	0	0	---	0.00	29.903 
02:40	74.9	74.9	74.9	64	61.9	0	0	---	0.00	29.903 
02:45	74.7	74.7	74.7	64	61.7	0	0	---	0.00	29.903 
02:50	74.6	74.6	74.6	65	62.0	0	0	---	0.00	29.903 
02:55	74.6	74.6	74.6	65	62.0	0	0	---	0.00	29.903 
03:00	74.2	74.2	74.2	66	62.1	0	0	---	0.00	29.903 
03:05	74.0	74.0	74.0	66	61.9	0	0	---	0.00	29.903 
03:10	73.9	73.9	73.9	66	61.8	0	0	---	0.00	29.903 
03:15	73.7	73.7	73.7	67	62.0	0	0	---	0.00	29.899 
03:20	73.5	73.5	73.5	67	61.9	0	0	---	0.00	29.899 
03:25	73.3	73.3	73.3	68	62.1	0	0	---	0.00	29.899 
03:30	73.2	73.2	73.2	68	62.0	1	3	270	0.00	29.907 
03:35	73.3	73.3	73.3	68	62.1	1	4	270	0.00	29.907 
03:40	73.7	73.7	73.7	67	62.0	1	3	270	0.00	29.907 
03:45	74.0	74.0	74.0	65	61.5	1	2	270	0.00	29.916 
03:50	74.2	74.2	74.2	65	61.7	1	2	270	0.00	29.916 
03:55	74.4	74.4	74.4	64	61.4	0	2	270	0.00	29.916 
04:00	74.4	74.4	74.4	64	61.4	1	3	270	0.00	29.917 
04:05	74.4	74.4	74.4	64	61.4	0	1	270	0.00	29.917 
04:10	74.4	74.4	74.4	64	61.4	1	3	270	0.00	29.917 
04:15	74.4	74.4	74.4	64	61.4	1	4	270	0.00	29.919 
04:20	74.2	74.2	74.2	64	61.2	1	3	270	0.00	29.919 
04:25	74.2	74.2	74.2	64	61.2	1	3	270	0.00	29.919 
04:30	74.0	74.0	74.0	65	61.5	1	4	270	0.00	29.917 
04:35	73.9	73.9	73.9	65	61.4	2	3	270	0.00	29.917 
04:40	73.7	73.7	73.7	65	61.2	1	2	270	0.00	29.917 
04:45	73.5	73.5	73.5	65	61.0	2	4	270	0.00	29.906 
04:50	73.3	73.3	73.3	65	60.8	1	2	270	0.00	29.906 
04:55	73.2	73.2	73.2	66	61.1	0	1	270	0.00	29.906 
05:00	73.0	73.0	73.0	66	61.0	0	1	270	0.00	29.898 
05:05	72.7	72.7	72.7	67	61.1	0	1	270	0.00	29.898 
05:10	72.5	72.5	72.5	67	60.9	0	1	270	0.00	29.898 
05:15	72.3	72.3	72.3	68	61.1	0	2	270	0.00	29.904 
05:20	72.3	72.3	72.3	68	61.1	2	3	270	0.00	29.904 
05:25	72.3	72.3	72.3	68	61.1	1	2	270	0.00	29.904 
05:30	72.3	72.3	72.3	68	61.1	1	2	270	0.00	29.901 
05:35	72.3	72.3	72.3	68	61.1	0	2	270	0.00	29.901 
05:40	72.1	72.1	72.1	69	61.4	1	2	270	0.00	29.901 
05:45	72.1	72.1	72.1	69	61.4	0	1	270	0.00	29.884 
05:50	72.0	72.0	72.0	69	61.3	0	1	270	0.00	29.884 
05:55	71.8	71.8	71.8	70	61.5	0	2	270	0.00	29.884 
06:00	71.8	71.8	71.8	70	61.5	0	1	270	0.00	29.889 
06:05	71.6	71.6	71.6	71	61.7	0	1	270	0.00	29.889 
06:10	71.5	71.5	71.5	71	61.6	0	0	---	0.00	29.889 
06:15	71.3	71.3	71.3	72	61.8	0	0	---	0.00	29.890 
06:20	71.1	71.1	71.1	72	61.6	0	0	---	0.00	29.890 
06:25	70.9	70.9	70.9	73	61.8	0	0	---	0.00	29.890 
06:30	70.8	70.8	70.8	73	61.7	0	0	---	0.00	29.893 
06:35	70.8	70.8	70.8	74	62.1	0	0	---	0.00	29.893 
06:40	70.6	70.6	70.6	74	61.9	0	0	---	0.00	29.893 
06:45	70.6	70.6	70.6	75	62.3	0	0	---	0.00	29.890 
06:50	70.6	70.6	70.6	75	62.3	0	0	---	0.00	29.890 
06:55	70.6	70.6	70.6	75	62.3	0	0	---	0.00	29.890 
07:00	70.4	70.4	70.4	76	62.5	0	0	---	0.00	29.884 
07:05	70.4	70.4	70.4	76	62.5	0	0	---	0.00	29.884 
07:10	70.4	70.4	70.4	77	62.8	0	0	---	0.00	29.884 
07:15	70.4	70.4	70.4	77	62.8	0	0	---	0.00	29.886 
07:20	70.4	70.4	70.4	77	62.8	0	1	270	0.00	29.886 
07:25	70.6	70.6	70.6	76	62.7	0	1	270	0.00	29.886 
07:30	70.8	70.8	70.8	76	62.8	0	0	---	0.00	29.885 
07:35	70.9	70.9	70.9	76	62.9	0	1	270	0.00	29.885 
07:40	71.3	71.3	71.3	75	63.0	0	1	270	0.00	29.885 
07:45	71.8	71.8	71.8	74	63.1	0	1	270	0.00	29.888 
07:50	72.5	72.5	72.5	72	62.9	0	1	270	0.00	29.888 
07:55	73.0	73.0	73.0	71	63.0	0	1	270	0.00	29.888 
08:00	73.5	73.5	73.5	70	63.1	0	2	270	0.00	29.893 
08:05	73.7	73.7	73.7	69	62.9	0	2	270	0.00	29.893 
08:10	73.7	73.7	73.7	69	62.9	0	2	270	0.00	29.893 
08:15	74.0	74.0	74.0	69	63.2	0	2	225	0.00	29.893 
08:20	74.2	74.2	74.2	68	62.9	0	1	225	0.00	29.893 
08:25	74.4	74.4	74.4	67	62.7	0	2	225	0.00	29.893 
08:30	74.2	74.2	74.2	67	62.5	0	2	225	0.00	29.891 
08:35	74.4	74.4	74.4	68	63.1	0	2	135	0.00	29.891 
08:40	74.6	74.6	74.6	67	62.9	0	2	135	0.00	29.891 
08:45	74.7	74.7	74.7	67	63.0	0	1	135	0.00	29.884 
08:50	74.7	74.7	74.7	66	62.6	1	2	135	0.00	29.884 
08:55	74.6	74.6	74.6	67	62.9	0	2	135	0.00	29.884 
09:00	74.6	74.6	74.6	67	62.9	1	2	135	0.00	29.883 
09:05	74.6	74.6	74.6	67	62.9	0	2	135	0.00	29.883 
09:10	74.6	74.6	74.6	67	62.9	1	3	135	0.00	29.883 
09:15	74.6	74.6	74.6	67	62.9	1	2	112	0.00	29.880 
09:20	74.6	74.6	74.6	68	63.3	1	4	90	0.00	29.880 
09:25	74.7	74.7	74.7	68	63.4	0	3	90	0.00	29.880 
09:30	74.7	74.7	74.7	68	63.4	0	3	90	0.00	29.882 
09:35	74.7	74.7	74.7	68	63.4	0	3	90	0.00	29.882 
09:40	74.6	74.6	74.6	68	63.3	0	1	90	0.00	29.882 
09:45	74.4	74.4	74.4	69	63.5	0	1	90	0.00	29.888 
09:50	74.2	74.2	74.2	70	63.8	0	1	90	0.00	29.888 
09:55	74.2	74.2	74.2	73	65.0	0	1	90	0.00	29.888 
10:00	73.9	73.9	73.9	73	64.7	0	1	90	0.00	29.883 
10:05	73.7	73.7	73.7	75	65.3	0	0	---	0.00	29.883 
10:10	73.3	73.3	73.3	76	65.3	0	0	---	0.00	29.883 
10:15	73.3	73.3	73.3	76	65.3	0	0	---	0.00	29.881 
10:20	73.3	73.3	73.3	77	65.6	0	0	---	0.00	29.881 
10:25	73.3	73.3	73.3	76	65.3	0	1	90	0.00	29.881 
10:30	73.5	73.5	73.5	76	65.5	0	1	90	0.00	29.878 
10:35	73.9	73.9	73.9	76	65.8	0	3	90	0.00	29.878 
10:40	74.2	74.2	74.2	74	65.4	1	2	90	0.00	29.878 
10:45	74.4	74.4	74.4	74	65.6	0	2	90	0.00	29.874 
10:50	74.7	74.7	74.7	73	65.5	1	2	90	0.00	29.874 
10:55	75.1	75.1	76.5	73	65.8	1	4	90	0.00	29.874 
11:00	75.4	75.4	76.9	72	65.7	0	2	90	0.00	29.866 
11:05	75.8	75.8	77.4	70	65.3	1	2	90	0.00	29.866 
11:10	76.0	76.0	77.7	70	65.5	1	3	90	0.00	29.866 
11:15	76.5	76.5	78.2	70	66.0	1	3	90	0.00	29.865 
11:20	76.8	76.8	78.6	68	65.4	1	4	315	0.00	29.865 
11:25	76.8	76.8	78.6	65	64.1	2	9	248	0.00	29.865 
11:30	76.8	76.8	78.6	65	64.1	3	5	248	0.00	29.868 
11:35	76.8	76.8	78.6	65	64.1	2	5	270	0.00	29.868 
11:40	76.5	76.5	78.3	65	63.8	2	6	270	0.00	29.868 
11:45	76.1	76.1	77.9	66	63.9	2	6	292	0.00	29.867 
11:50	75.8	75.8	77.6	68	64.5	3	5	292	0.00	29.867 
11:55	75.6	75.6	77.3	69	64.7	2	5	270	0.00	29.867 
12:00	75.3	75.3	77.0	70	64.8	2	5	270	0.00	29.874 
12:05	74.4	74.4	74.4	75	65.9	4	6	270	0.00	29.874 
12:10	73.2	73.2	73.2	79	66.3	2	5	270	0.00	29.874 
12:15	72.5	72.5	72.5	83	67.0	2	4	270	0.00	29.880 
12:20	72.0	72.0	72.0	85	67.2	1	4	270	0.01	29.880 
12:25	71.8	71.8	71.8	86	67.4	1	3	270	0.00	29.880 
12:30	71.8	71.8	71.8	87	67.7	1	3	270	0.00	29.876 
12:35	72.1	72.1	72.1	87	68.0	1	2	270	0.00	29.876 
12:40	72.7	72.7	72.7	86	68.3	1	4	270	0.00	29.876 
12:45	73.3	73.3	73.3	84	68.2	2	4	270	0.00	29.868 
12:50	74.2	74.2	74.2	80	67.6	2	4	270	0.00	29.868 
12:55	74.9	74.9	74.9	76	66.8	3	6	270	0.00	29.868 
13:00	75.3	75.3	76.6	74	66.4	3	6	270	0.00	29.864 
13:05	75.4	75.4	76.7	74	66.5	3	6	292	0.00	29.864 
13:10	76.0	76.0	77.5	73	66.7	3	6	270	0.00	29.864 
13:15	76.7	76.7	78.3	73	67.4	2	5	270	0.00	29.859 
13:20	77.6	77.6	79.5	69	66.6	3	6	270	0.00	29.859 
13:25	77.9	77.9	79.8	67	66.0	3	7	270	0.00	29.859 
13:30	78.3	78.3	80.3	68	66.8	3	5	270	0.00	29.856 
13:35	78.1	78.1	80.0	66	65.8	4	7	270	0.00	29.856 
13:40	78.8	78.8	80.8	65	66.0	3	6	270	0.00	29.856 
13:45	78.6	78.6	80.6	65	65.8	3	9	270	0.00	29.848 
13:50	78.5	78.5	80.4	65	65.7	2	4	270	0.00	29.848 
13:55	78.8	78.8	80.8	65	66.0	2	3	270	0.00	29.848 
14:00	79.2	79.2	81.1	62	65.0	2	6	338	0.00	29.845 
14:05	79.2	79.2	81.0	61	64.6	2	5	338	0.00	29.845 
14:10	79.4	79.4	81.3	62	65.2	3	5	315	0.00	29.845 
14:15	80.5	80.5	82.3	59	64.8	3	5	315	0.00	29.839 
14:20	81.4	81.4	83.1	57	64.7	3	7	292	0.00	29.839 
14:25	82.4	82.4	84.1	55	64.6	3	5	270	0.00	29.839 
14:30	82.2	82.2	83.5	53	63.3	3	7	270	0.00	29.835 
14:35	81.2	81.2	82.6	55	63.5	2	5	270	0.00	29.835 
14:40	80.7	80.7	81.9	54	62.5	2	4	270	0.00	29.835 
14:45	80.9	80.9	82.3	55	63.2	3	6	248	0.00	29.836 
14:50	81.4	81.4	82.7	54	63.1	3	5	270	0.00	29.836 
14:55	81.6	81.6	82.8	53	62.8	2	4	315	0.00	29.836 
15:00	81.8	81.8	83.0	53	63.0	3	5	270	0.00	29.832 
15:05	82.0	82.0	83.1	52	62.6	2	5	270	0.00	29.832 
15:10	81.6	81.6	82.6	52	62.2	3	6	270	0.00	29.832 
15:15	81.4	81.4	82.7	54	63.1	3	5	270	0.00	29.831 
15:20	81.8	81.8	83.0	53	63.0	2	5	270	0.00	29.831 
15:25	82.4	82.4	83.5	52	63.0	3	5	270	0.00	29.831 
15:30	83.2	83.2	84.1	50	62.6	3	5	315	0.00	29.818 
15:35	83.0	83.0	83.9	50	62.4	3	6	270	0.00	29.818 
15:40	83.2	83.2	84.0	49	62.0	3	9	270	0.00	29.818 
15:45	83.2	83.2	84.0	49	62.0	3	5	292	0.00	29.813 
15:50	83.2	83.2	84.0	49	62.0	3	5	270	0.00	29.813 
15:55	83.4	83.4	84.2	49	62.2	2	5	270	0.00	29.813 
16:00	83.4	83.4	84.2	49	62.2	2	6	270	0.00	29.806 
16:05	83.6	83.6	84.4	49	62.4	3	6	270	0.00	29.806 
16:10	84.1	84.1	84.8	48	62.3	2	3	270	0.00	29.806 
16:15	84.9	84.9	85.4	46	61.8	2	5	270	0.00	29.811 
16:20	85.1	85.1	85.7	46	62.0	3	5	270	0.00	29.811 
16:25	85.1	85.1	85.2	44	60.7	4	7	270	0.00	29.811 
16:30	85.5	85.5	85.7	44	61.1	2	6	270	0.00	29.812 
16:35	85.5	85.5	85.5	43	60.4	4	7	270	0.00	29.812 
16:40	84.9	84.9	85.2	45	61.2	2	5	270	0.00	29.812 
16:45	84.7	84.7	85.0	45	61.0	2	5	270	0.00	29.811 
16:50	84.1	84.1	84.3	45	60.4	2	5	270	0.00	29.811 
16:55	83.6	83.6	83.9	46	60.6	3	5	270	0.00	29.811 
17:00	83.4	83.4	84.0	48	61.6	2	4	315	0.00	29.807 
17:05	83.6	83.6	84.1	47	61.2	3	6	292	0.00	29.807 
17:10	83.4	83.4	84.0	48	61.6	3	7	292	0.00	29.807 
17:15	83.0	83.0	83.7	49	61.8	3	6	270	0.00	29.813 
17:20	83.2	83.2	84.0	49	62.0	3	7	270	0.00	29.813 
17:25	83.8	83.8	84.7	49	62.6	2	6	270	0.00	29.813 
17:30	83.8	83.8	84.3	47	61.4	2	4	315	0.00	29.807 
17:35	84.1	84.1	84.6	47	61.7	2	3	315	0.00	29.807 
17:40	84.3	84.3	84.7	46	61.2	2	4	315	0.00	29.807 
17:45	84.9	84.9	85.4	46	61.8	3	6	292	0.00	29.806 
17:50	84.5	84.5	84.7	45	60.8	3	5	270	0.00	29.806 
17:55	83.8	83.8	84.1	46	60.8	2	5	270	0.00	29.806 
18:00	83.2	83.2	83.6	47	60.8	3	4	270	0.00	29.813 
18:05	82.8	82.8	83.5	49	61.7	4	7	270	0.00	29.813 
18:10	83.0	83.0	83.9	50	62.4	3	9	292	0.00	29.813 
18:15	82.4	82.4	83.4	51	62.4	3	6	270	0.00	29.816 
18:20	82.2	82.2	83.1	51	62.2	3	9	315	0.00	29.816 
18:25	81.8	81.8	82.7	51	61.9	4	10	292	0.00	29.816 
18:30	81.6	81.6	82.5	51	61.7	3	6	292	0.00	29.818 
18:35	81.6	81.6	82.3	50	61.1	3	6	292	0.00	29.818 
18:40	81.6	81.6	82.3	50	61.1	3	6	292	0.00	29.818 
18:45	82.0	82.0	82.6	49	60.9	3	7	270	0.00	29.820 
18:50	81.8	81.8	82.4	49	60.7	3	6	292	0.00	29.820 
18:55	82.0	82.0	82.6	49	60.9	1	5	270	0.00	29.820 
19:00	82.0	82.0	82.5	48	60.3	2	5	315	0.00	29.820 
19:05	82.0	82.0	82.5	48	60.3	2	6	338	0.00	29.820 
19:10	81.8	81.8	82.1	47	59.6	2	4	338	0.00	29.820 
19:15	81.8	81.8	82.0	46	59.0	2	4	292	0.00	29.818 
19:20	81.6	81.6	81.7	45	58.2	2	5	270	0.00	29.818 
19:25	81.6	81.6	81.5	43	56.9	3	6	292	0.00	29.818 
19:30	81.4	81.4	81.3	43	56.7	1	3	315	0.00	29.822 
19:35	81.6	81.6	81.5	43	56.9	2	5	315	0.00	29.822 
19:40	81.4	81.4	81.2	42	56.1	1	3	292	0.00	29.822 
19:45	81.4	81.4	81.0	40	54.7	2	4	292	0.00	29.824 
19:50	81.4	81.4	81.0	40	54.7	1	3	292	0.00	29.824 
19:55	81.2	81.2	80.7	39	53.9	2	4	292	0.00	29.824 
20:00	81.2	81.2	80.7	39	53.9	1	3	292	0.00	29.825 
20:05	81.1	81.1	80.6	39	53.8	0	2	292	0.00	29.825 
20:10	81.1	81.1	80.6	39	53.8	1	2	292	0.00	29.825 
20:15	81.1	81.1	80.6	39	53.8	0	2	292	0.00	29.820 
20:20	80.9	80.9	80.5	39	53.6	0	1	292	0.00	29.820 
20:25	80.7	80.7	80.3	39	53.4	0	1	292	0.00	29.820 
20:30	80.7	80.7	80.3	39	53.4	0	0	---	0.00	29.822 
20:35	80.3	80.3	80.1	39	53.1	0	1	292	0.00	29.822 
20:40	80.1	80.1	79.9	39	52.9	0	0	---	0.00	29.822 
20:45	79.8	79.8	79.8	40	53.3	0	0	---	0.00	29.824 
20:50	79.4	79.4	79.6	41	53.6	0	0	---	0.00	29.824 
20:55	78.8	78.8	79.4	43	54.4	0	0	---	0.00	29.824 
21:00	78.5	78.5	79.2	43	54.1	0	0	---	0.00	29.829 
21:05	77.7	77.7	78.7	43	53.4	0	0	---	0.00	29.829 
21:10	77.4	77.4	78.6	44	53.8	0	0	---	0.00	29.829 
21:15	76.8	76.8	78.3	44	53.2	0	0	---	0.00	29.831 
21:20	76.5	76.5	78.2	45	53.6	0	0	---	0.00	29.831 
21:25	76.0	76.0	78.0	46	53.7	0	0	---	0.00	29.831 
21:30	75.4	75.4	77.8	47	53.7	0	0	---	0.00	29.833 
21:35	74.9	74.9	74.9	48	53.9	0	0	---	0.00	29.833 
21:40	74.4	74.4	74.4	50	54.5	0	0	---	0.00	29.833 
21:45	73.9	73.9	73.9	51	54.6	0	0	---	0.00	29.838 
21:50	73.3	73.3	73.3	52	54.6	0	0	---	0.00	29.838 
21:55	73.0	73.0	73.0	53	54.8	0	0	---	0.00	29.838 
22:00	72.7	72.7	72.7	54	55.1	0	0	---	0.00	29.842 
22:05	72.3	72.3	72.3	54	54.7	0	0	---	0.00	29.842 
22:10	71.8	71.8	71.8	55	54.7	0	0	---	0.00	29.842 
22:15	71.5	71.5	71.5	57	55.5	0	0	---	0.00	29.843 
22:20	70.9	70.9	70.9	58	55.4	0	0	---	0.00	29.843 
22:25	70.6	70.6	70.6	59	55.6	0	0	---	0.00	29.843 
22:30	70.4	70.4	70.4	60	55.8	0	0	---	0.00	29.844 
22:35	70.1	70.1	70.1	61	56.0	0	0	---	0.00	29.844 
22:40	69.8	69.8	69.8	62	56.2	0	0	---	0.00	29.844 
22:45	69.6	69.6	69.6	62	56.0	0	0	---	0.00	29.842 
22:50	69.3	69.3	69.3	63	56.2	0	0	---	0.00	29.842 
22:55	69.1	69.1	69.1	63	56.0	0	0	---	0.00	29.842 
23:00	68.9	68.9	68.9	64	56.2	0	0	---	0.00	29.839 
23:05	68.6	68.6	68.6	64	55.9	0	0	---	0.00	29.839 
23:10	68.4	68.4	68.4	64	55.7	0	0	---	0.00	29.839 
23:15	68.3	68.3	68.3	64	55.6	0	0	---	0.00	29.840 
23:20	68.1	68.1	68.1	65	55.9	0	0	---	0.00	29.840 
23:25	67.8	67.8	67.8	66	56.0	0	0	---	0.00	29.840 
23:30	67.6	67.6	67.6	66	55.8	0	0	---	0.00	29.841 
23:35	67.3	67.3	67.3	67	56.0	0	0	---	0.00	29.841 
23:40	67.1	67.1	67.1	68	56.2	0	0	---	0.00	29.841 
23:45	66.8	66.8	66.8	69	56.3	0	0	---	0.00	29.842 
23:50	66.6	66.6	66.6	70	56.5	0	0	---	0.00	29.842 
23:55	66.3	66.3	66.3	70	56.2	0	0	---	0.00	29.842 

CoCoRaHS
IN-AL-39
A2 Web Hosting
Creative Commons License
GoDaddy
search engine by freefind advanced

loaded 2018-12-19 10:23:01 • last modified 2010-11-18 10:43:29
Privacy PolicyDisclaimer
• wx.awcolley.com is powered by PmWiki v.2002016 •
• all content (unless otherwise noted) © 2018 A W Colley